sensor_id;sensor_type;location;lat;lon;timestamp;P1;durP1;ratioP1;P2;durP2;ratioP2
23402;SDS011;11874;48.228;11.684;2022-07-29T00:02:13;1.77;;;1.30;;
23402;SDS011;11874;48.228;11.684;2022-07-29T00:04:41;1.60;;;1.23;;
23402;SDS011;11874;48.228;11.684;2022-07-29T00:07:09;2.03;;;1.30;;
23402;SDS011;11874;48.228;11.684;2022-07-29T00:09:39;1.50;;;1.30;;
23402;SDS011;11874;48.228;11.684;2022-07-29T00:12:18;2.47;;;1.20;;
23402;SDS011;11874;48.228;11.684;2022-07-29T00:14:52;2.08;;;1.45;;
23402;SDS011;11874;48.228;11.684;2022-07-29T00:17:20;1.60;;;1.42;;
23402;SDS011;11874;48.228;11.684;2022-07-29T00:19:49;1.40;;;1.30;;
23402;SDS011;11874;48.228;11.684;2022-07-29T00:22:17;1.38;;;1.27;;
23402;SDS011;11874;48.228;11.684;2022-07-29T00:24:44;1.73;;;1.55;;
23402;SDS011;11874;48.228;11.684;2022-07-29T00:27:14;4.18;;;1.30;;
23402;SDS011;11874;48.228;11.684;2022-07-29T00:29:44;2.30;;;1.35;;
23402;SDS011;11874;48.228;11.684;2022-07-29T00:32:12;1.25;;;1.15;;
23402;SDS011;11874;48.228;11.684;2022-07-29T00:34:39;1.65;;;1.38;;
23402;SDS011;11874;48.228;11.684;2022-07-29T00:37:25;2.50;;;1.50;;
23402;SDS011;11874;48.228;11.684;2022-07-29T00:39:52;2.58;;;1.20;;
23402;SDS011;11874;48.228;11.684;2022-07-29T00:42:20;1.50;;;1.33;;
23402;SDS011;11874;48.228;11.684;2022-07-29T00:44:49;1.48;;;1.15;;
23402;SDS011;11874;48.228;11.684;2022-07-29T00:47:17;1.52;;;1.30;;
23402;SDS011;11874;48.228;11.684;2022-07-29T00:49:45;1.70;;;1.30;;
23402;SDS011;11874;48.228;11.684;2022-07-29T00:52:13;3.70;;;1.60;;
23402;SDS011;11874;48.228;11.684;2022-07-29T00:54:42;2.08;;;1.40;;
23402;SDS011;11874;48.228;11.684;2022-07-29T00:57:10;2.67;;;1.50;;
23402;SDS011;11874;48.228;11.684;2022-07-29T00:59:38;2.22;;;1.50;;
23402;SDS011;11874;48.228;11.684;2022-07-29T01:02:07;2.80;;;1.42;;
23402;SDS011;11874;48.228;11.684;2022-07-29T01:04:35;2.78;;;1.90;;
23402;SDS011;11874;48.228;11.684;2022-07-29T01:07:03;2.00;;;1.40;;
23402;SDS011;11874;48.228;11.684;2022-07-29T01:09:32;1.75;;;1.40;;
23402;SDS011;11874;48.228;11.684;2022-07-29T01:12:12;1.58;;;1.40;;
23402;SDS011;11874;48.228;11.684;2022-07-29T01:14:42;2.28;;;1.50;;
23402;SDS011;11874;48.228;11.684;2022-07-29T01:17:14;1.83;;;1.58;;
23402;SDS011;11874;48.228;11.684;2022-07-29T01:19:51;1.40;;;1.30;;
23402;SDS011;11874;48.228;11.684;2022-07-29T01:22:28;2.90;;;1.60;;
23402;SDS011;11874;48.228;11.684;2022-07-29T01:25:08;1.48;;;1.38;;
23402;SDS011;11874;48.228;11.684;2022-07-29T01:27:47;1.50;;;1.38;;
23402;SDS011;11874;48.228;11.684;2022-07-29T01:30:29;5.63;;;1.52;;
23402;SDS011;11874;48.228;11.684;2022-07-29T01:33:00;1.58;;;1.40;;
23402;SDS011;11874;48.228;11.684;2022-07-29T01:35:33;3.53;;;1.55;;
23402;SDS011;11874;48.228;11.684;2022-07-29T01:38:06;3.20;;;1.58;;
23402;SDS011;11874;48.228;11.684;2022-07-29T01:40:39;1.67;;;1.58;;
23402;SDS011;11874;48.228;11.684;2022-07-29T01:43:12;1.90;;;1.70;;
23402;SDS011;11874;48.228;11.684;2022-07-29T01:45:47;2.38;;;1.48;;
23402;SDS011;11874;48.228;11.684;2022-07-29T01:48:20;1.80;;;1.40;;
23402;SDS011;11874;48.228;11.684;2022-07-29T01:50:56;1.75;;;1.50;;
23402;SDS011;11874;48.228;11.684;2022-07-29T01:53:31;2.33;;;1.50;;
23402;SDS011;11874;48.228;11.684;2022-07-29T01:56:03;1.70;;;1.55;;
23402;SDS011;11874;48.228;11.684;2022-07-29T01:58:33;2.40;;;1.70;;
23402;SDS011;11874;48.228;11.684;2022-07-29T02:01:07;5.00;;;1.58;;
23402;SDS011;11874;48.228;11.684;2022-07-29T02:03:37;2.20;;;1.40;;
23402;SDS011;11874;48.228;11.684;2022-07-29T02:06:06;2.17;;;1.40;;
23402;SDS011;11874;48.228;11.684;2022-07-29T02:08:36;2.47;;;1.90;;
23402;SDS011;11874;48.228;11.684;2022-07-29T02:11:06;2.22;;;1.88;;
23402;SDS011;11874;48.228;11.684;2022-07-29T02:13:36;1.60;;;1.50;;
23402;SDS011;11874;48.228;11.684;2022-07-29T02:16:06;2.65;;;1.80;;
23402;SDS011;11874;48.228;11.684;2022-07-29T02:18:37;2.17;;;1.48;;
23402;SDS011;11874;48.228;11.684;2022-07-29T02:21:07;3.60;;;1.80;;
23402;SDS011;11874;48.228;11.684;2022-07-29T02:23:40;1.90;;;1.63;;
23402;SDS011;11874;48.228;11.684;2022-07-29T02:26:17;1.60;;;1.40;;
23402;SDS011;11874;48.228;11.684;2022-07-29T02:28:46;2.15;;;1.65;;
23402;SDS011;11874;48.228;11.684;2022-07-29T02:31:17;1.65;;;1.55;;
23402;SDS011;11874;48.228;11.684;2022-07-29T02:33:48;1.60;;;1.50;;
23402;SDS011;11874;48.228;11.684;2022-07-29T02:36:16;2.30;;;1.95;;
23402;SDS011;11874;48.228;11.684;2022-07-29T02:38:46;4.35;;;1.70;;
23402;SDS011;11874;48.228;11.684;2022-07-29T02:43:47;3.97;;;1.77;;
23402;SDS011;11874;48.228;11.684;2022-07-29T02:46:21;2.95;;;1.73;;
23402;SDS011;11874;48.228;11.684;2022-07-29T02:48:57;2.50;;;1.70;;
23402;SDS011;11874;48.228;11.684;2022-07-29T02:51:32;5.22;;;1.77;;
23402;SDS011;11874;48.228;11.684;2022-07-29T02:54:10;1.80;;;1.70;;
23402;SDS011;11874;48.228;11.684;2022-07-29T02:56:45;1.88;;;1.55;;
23402;SDS011;11874;48.228;11.684;2022-07-29T02:59:14;1.90;;;1.80;;
23402;SDS011;11874;48.228;11.684;2022-07-29T03:01:50;5.28;;;1.77;;
23402;SDS011;11874;48.228;11.684;2022-07-29T03:04:19;2.20;;;1.50;;
23402;SDS011;11874;48.228;11.684;2022-07-29T03:06:49;1.42;;;1.33;;
23402;SDS011;11874;48.228;11.684;2022-07-29T03:09:19;2.05;;;1.60;;
23402;SDS011;11874;48.228;11.684;2022-07-29T03:11:49;3.38;;;1.63;;
23402;SDS011;11874;48.228;11.684;2022-07-29T03:14:17;1.77;;;1.52;;
23402;SDS011;11874;48.228;11.684;2022-07-29T03:16:46;2.03;;;1.83;;
23402;SDS011;11874;48.228;11.684;2022-07-29T03:19:17;2.05;;;1.52;;
23402;SDS011;11874;48.228;11.684;2022-07-29T03:21:46;2.05;;;1.50;;
23402;SDS011;11874;48.228;11.684;2022-07-29T03:24:26;2.30;;;1.80;;
23402;SDS011;11874;48.228;11.684;2022-07-29T03:26:56;1.70;;;1.60;;
23402;SDS011;11874;48.228;11.684;2022-07-29T03:29:25;1.70;;;1.60;;
23402;SDS011;11874;48.228;11.684;2022-07-29T03:31:59;3.55;;;1.85;;
23402;SDS011;11874;48.228;11.684;2022-07-29T03:34:33;1.80;;;1.48;;
23402;SDS011;11874;48.228;11.684;2022-07-29T03:37:02;1.58;;;1.48;;
23402;SDS011;11874;48.228;11.684;2022-07-29T03:39:31;1.88;;;1.52;;
23402;SDS011;11874;48.228;11.684;2022-07-29T03:44:32;2.85;;;1.90;;
23402;SDS011;11874;48.228;11.684;2022-07-29T03:47:00;2.58;;;1.88;;
23402;SDS011;11874;48.228;11.684;2022-07-29T03:49:30;2.65;;;1.50;;
23402;SDS011;11874;48.228;11.684;2022-07-29T03:52:00;3.20;;;1.80;;
23402;SDS011;11874;48.228;11.684;2022-07-29T03:54:28;2.42;;;1.90;;
23402;SDS011;11874;48.228;11.684;2022-07-29T03:56:56;2.45;;;1.80;;
23402;SDS011;11874;48.228;11.684;2022-07-29T03:59:26;3.65;;;1.92;;
23402;SDS011;11874;48.228;11.684;2022-07-29T04:01:54;2.13;;;1.70;;
23402;SDS011;11874;48.228;11.684;2022-07-29T04:04:24;2.33;;;1.88;;
23402;SDS011;11874;48.228;11.684;2022-07-29T04:06:53;4.75;;;1.77;;
23402;SDS011;11874;48.228;11.684;2022-07-29T04:09:23;7.40;;;1.90;;
23402;SDS011;11874;48.228;11.684;2022-07-29T04:11:50;4.40;;;2.20;;
23402;SDS011;11874;48.228;11.684;2022-07-29T04:14:29;2.25;;;1.80;;
23402;SDS011;11874;48.228;11.684;2022-07-29T04:16:57;2.85;;;1.65;;
23402;SDS011;11874;48.228;11.684;2022-07-29T04:19:26;2.00;;;1.80;;
23402;SDS011;11874;48.228;11.684;2022-07-29T04:21:53;1.92;;;1.60;;
23402;SDS011;11874;48.228;11.684;2022-07-29T04:24:23;2.25;;;1.90;;
23402;SDS011;11874;48.228;11.684;2022-07-29T04:26:51;3.08;;;2.00;;
23402;SDS011;11874;48.228;11.684;2022-07-29T04:29:19;2.08;;;1.88;;
23402;SDS011;11874;48.228;11.684;2022-07-29T04:31:47;4.07;;;1.90;;
23402;SDS011;11874;48.228;11.684;2022-07-29T04:34:15;3.33;;;2.00;;
23402;SDS011;11874;48.228;11.684;2022-07-29T04:36:43;2.75;;;1.85;;
23402;SDS011;11874;48.228;11.684;2022-07-29T04:39:11;4.20;;;1.90;;
23402;SDS011;11874;48.228;11.684;2022-07-29T04:41:45;3.83;;;1.90;;
23402;SDS011;11874;48.228;11.684;2022-07-29T04:44:13;3.83;;;2.08;;
23402;SDS011;11874;48.228;11.684;2022-07-29T04:46:42;2.88;;;1.98;;
23402;SDS011;11874;48.228;11.684;2022-07-29T04:49:10;5.10;;;2.30;;
23402;SDS011;11874;48.228;11.684;2022-07-29T04:51:39;3.28;;;2.38;;
23402;SDS011;11874;48.228;11.684;2022-07-29T04:54:07;2.88;;;1.73;;
23402;SDS011;11874;48.228;11.684;2022-07-29T04:56:35;2.75;;;2.08;;
23402;SDS011;11874;48.228;11.684;2022-07-29T04:59:04;4.57;;;1.73;;
23402;SDS011;11874;48.228;11.684;2022-07-29T05:01:32;2.05;;;1.83;;
23402;SDS011;11874;48.228;11.684;2022-07-29T05:04:00;1.67;;;1.58;;
23402;SDS011;11874;48.228;11.684;2022-07-29T05:06:28;4.85;;;1.90;;
23402;SDS011;11874;48.228;11.684;2022-07-29T05:08:56;1.85;;;1.73;;
23402;SDS011;11874;48.228;11.684;2022-07-29T05:11:24;1.73;;;1.58;;
23402;SDS011;11874;48.228;11.684;2022-07-29T05:13:55;1.83;;;1.40;;
23402;SDS011;11874;48.228;11.684;2022-07-29T05:16:25;1.50;;;1.35;;
23402;SDS011;11874;48.228;11.684;2022-07-29T05:18:53;3.22;;;1.50;;
23402;SDS011;11874;48.228;11.684;2022-07-29T05:21:21;3.00;;;1.58;;
23402;SDS011;11874;48.228;11.684;2022-07-29T05:23:48;3.67;;;1.67;;
23402;SDS011;11874;48.228;11.684;2022-07-29T05:26:16;3.22;;;1.52;;
23402;SDS011;11874;48.228;11.684;2022-07-29T05:28:44;1.50;;;1.40;;
23402;SDS011;11874;48.228;11.684;2022-07-29T05:31:12;1.65;;;1.50;;
23402;SDS011;11874;48.228;11.684;2022-07-29T05:33:42;2.05;;;1.50;;
23402;SDS011;11874;48.228;11.684;2022-07-29T05:36:10;1.63;;;1.50;;
23402;SDS011;11874;48.228;11.684;2022-07-29T05:38:38;2.03;;;1.45;;
23402;SDS011;11874;48.228;11.684;2022-07-29T05:41:06;1.67;;;1.45;;
23402;SDS011;11874;48.228;11.684;2022-07-29T05:43:34;2.85;;;1.50;;
23402;SDS011;11874;48.228;11.684;2022-07-29T05:46:01;2.92;;;1.65;;
23402;SDS011;11874;48.228;11.684;2022-07-29T05:48:29;1.60;;;1.50;;
23402;SDS011;11874;48.228;11.684;2022-07-29T05:50:59;2.47;;;1.65;;
23402;SDS011;11874;48.228;11.684;2022-07-29T05:53:28;1.50;;;1.40;;
23402;SDS011;11874;48.228;11.684;2022-07-29T05:55:55;2.00;;;1.63;;
23402;SDS011;11874;48.228;11.684;2022-07-29T05:58:23;2.25;;;1.50;;
23402;SDS011;11874;48.228;11.684;2022-07-29T06:00:51;2.13;;;1.38;;
23402;SDS011;11874;48.228;11.684;2022-07-29T06:03:20;3.15;;;1.65;;
23402;SDS011;11874;48.228;11.684;2022-07-29T06:05:47;3.53;;;2.00;;
23402;SDS011;11874;48.228;11.684;2022-07-29T06:08:17;4.90;;;1.60;;
23402;SDS011;11874;48.228;11.684;2022-07-29T06:10:45;4.53;;;1.67;;
23402;SDS011;11874;48.228;11.684;2022-07-29T06:13:13;1.60;;;1.40;;
23402;SDS011;11874;48.228;11.684;2022-07-29T06:15:42;2.70;;;1.25;;
23402;SDS011;11874;48.228;11.684;2022-07-29T06:18:10;1.75;;;1.20;;
23402;SDS011;11874;48.228;11.684;2022-07-29T06:20:39;2.60;;;1.33;;
23402;SDS011;11874;48.228;11.684;2022-07-29T06:23:07;17.40;;;2.80;;
23402;SDS011;11874;48.228;11.684;2022-07-29T06:25:37;3.92;;;1.73;;
23402;SDS011;11874;48.228;11.684;2022-07-29T06:28:07;1.75;;;1.48;;
23402;SDS011;11874;48.228;11.684;2022-07-29T06:30:34;1.60;;;1.50;;
23402;SDS011;11874;48.228;11.684;2022-07-29T06:33:03;4.65;;;1.65;;
23402;SDS011;11874;48.228;11.684;2022-07-29T06:35:32;1.83;;;1.48;;
23402;SDS011;11874;48.228;11.684;2022-07-29T06:38:07;2.10;;;1.42;;
23402;SDS011;11874;48.228;11.684;2022-07-29T06:40:56;4.28;;;1.33;;
23402;SDS011;11874;48.228;11.684;2022-07-29T06:43:29;1.98;;;1.38;;
23402;SDS011;11874;48.228;11.684;2022-07-29T06:46:00;6.97;;;1.42;;
23402;SDS011;11874;48.228;11.684;2022-07-29T06:48:29;1.92;;;1.30;;
23402;SDS011;11874;48.228;11.684;2022-07-29T06:50:57;3.70;;;1.50;;
23402;SDS011;11874;48.228;11.684;2022-07-29T06:53:26;1.88;;;1.40;;
23402;SDS011;11874;48.228;11.684;2022-07-29T06:55:54;4.60;;;1.52;;
23402;SDS011;11874;48.228;11.684;2022-07-29T06:58:23;1.45;;;1.35;;
23402;SDS011;11874;48.228;11.684;2022-07-29T07:00:51;3.55;;;1.50;;
23402;SDS011;11874;48.228;11.684;2022-07-29T07:03:19;4.68;;;1.50;;
23402;SDS011;11874;48.228;11.684;2022-07-29T07:05:47;4.82;;;1.58;;
23402;SDS011;11874;48.228;11.684;2022-07-29T07:08:15;5.57;;;1.80;;
23402;SDS011;11874;48.228;11.684;2022-07-29T07:10:43;5.55;;;1.75;;
23402;SDS011;11874;48.228;11.684;2022-07-29T07:13:11;4.25;;;1.58;;
23402;SDS011;11874;48.228;11.684;2022-07-29T07:15:41;6.43;;;1.83;;
23402;SDS011;11874;48.228;11.684;2022-07-29T07:18:09;3.15;;;1.88;;
23402;SDS011;11874;48.228;11.684;2022-07-29T07:20:37;1.92;;;1.73;;
23402;SDS011;11874;48.228;11.684;2022-07-29T07:23:05;5.90;;;2.30;;
23402;SDS011;11874;48.228;11.684;2022-07-29T07:25:33;2.03;;;1.80;;
23402;SDS011;11874;48.228;11.684;2022-07-29T07:28:04;4.38;;;1.77;;
23402;SDS011;11874;48.228;11.684;2022-07-29T07:30:31;2.17;;;1.45;;
23402;SDS011;11874;48.228;11.684;2022-07-29T07:33:01;2.30;;;1.63;;
23402;SDS011;11874;48.228;11.684;2022-07-29T07:35:29;2.10;;;1.50;;
23402;SDS011;11874;48.228;11.684;2022-07-29T07:37:57;1.77;;;1.67;;
23402;SDS011;11874;48.228;11.684;2022-07-29T07:40:25;1.85;;;1.70;;
23402;SDS011;11874;48.228;11.684;2022-07-29T07:42:53;2.13;;;1.50;;
23402;SDS011;11874;48.228;11.684;2022-07-29T07:45:21;2.40;;;1.92;;
23402;SDS011;11874;48.228;11.684;2022-07-29T07:47:49;1.98;;;1.70;;
23402;SDS011;11874;48.228;11.684;2022-07-29T07:50:19;3.75;;;1.70;;
23402;SDS011;11874;48.228;11.684;2022-07-29T07:52:48;3.20;;;1.70;;
23402;SDS011;11874;48.228;11.684;2022-07-29T07:55:16;2.55;;;1.60;;
23402;SDS011;11874;48.228;11.684;2022-07-29T07:57:45;2.97;;;1.98;;
23402;SDS011;11874;48.228;11.684;2022-07-29T08:00:13;2.38;;;1.75;;
23402;SDS011;11874;48.228;11.684;2022-07-29T08:02:42;2.35;;;1.55;;
23402;SDS011;11874;48.228;11.684;2022-07-29T08:05:11;1.75;;;1.58;;
23402;SDS011;11874;48.228;11.684;2022-07-29T08:07:45;4.68;;;1.77;;
23402;SDS011;11874;48.228;11.684;2022-07-29T08:10:14;2.58;;;1.73;;
23402;SDS011;11874;48.228;11.684;2022-07-29T08:13:02;4.15;;;1.90;;
23402;SDS011;11874;48.228;11.684;2022-07-29T08:15:30;3.78;;;1.90;;
23402;SDS011;11874;48.228;11.684;2022-07-29T08:17:58;3.67;;;2.00;;
23402;SDS011;11874;48.228;11.684;2022-07-29T08:20:33;2.22;;;1.58;;
23402;SDS011;11874;48.228;11.684;2022-07-29T08:23:04;4.60;;;1.90;;
23402;SDS011;11874;48.228;11.684;2022-07-29T08:25:35;5.60;;;2.17;;
23402;SDS011;11874;48.228;11.684;2022-07-29T08:28:05;2.73;;;2.50;;
23402;SDS011;11874;48.228;11.684;2022-07-29T08:30:33;1.77;;;1.60;;
23402;SDS011;11874;48.228;11.684;2022-07-29T08:33:01;2.30;;;1.50;;
23402;SDS011;11874;48.228;11.684;2022-07-29T08:35:29;3.28;;;2.15;;
23402;SDS011;11874;48.228;11.684;2022-07-29T08:38:01;2.58;;;1.63;;
23402;SDS011;11874;48.228;11.684;2022-07-29T08:40:31;1.83;;;1.40;;
23402;SDS011;11874;48.228;11.684;2022-07-29T08:42:59;3.67;;;1.60;;
23402;SDS011;11874;48.228;11.684;2022-07-29T08:45:35;1.65;;;1.55;;
23402;SDS011;11874;48.228;11.684;2022-07-29T08:48:13;1.95;;;1.70;;
23402;SDS011;11874;48.228;11.684;2022-07-29T08:50:43;1.67;;;1.58;;
23402;SDS011;11874;48.228;11.684;2022-07-29T08:53:14;7.65;;;2.63;;
23402;SDS011;11874;48.228;11.684;2022-07-29T08:55:44;2.17;;;1.98;;
23402;SDS011;11874;48.228;11.684;2022-07-29T08:58:12;2.00;;;1.75;;
23402;SDS011;11874;48.228;11.684;2022-07-29T09:00:42;2.40;;;1.90;;
23402;SDS011;11874;48.228;11.684;2022-07-29T09:03:12;3.78;;;1.83;;
23402;SDS011;11874;48.228;11.684;2022-07-29T09:05:45;2.05;;;1.85;;
23402;SDS011;11874;48.228;11.684;2022-07-29T09:08:15;2.95;;;1.98;;
23402;SDS011;11874;48.228;11.684;2022-07-29T09:10:44;2.80;;;2.10;;
23402;SDS011;11874;48.228;11.684;2022-07-29T09:13:13;3.92;;;2.30;;
23402;SDS011;11874;48.228;11.684;2022-07-29T09:15:41;3.33;;;2.10;;
23402;SDS011;11874;48.228;11.684;2022-07-29T09:18:09;3.25;;;2.28;;
23402;SDS011;11874;48.228;11.684;2022-07-29T09:20:56;5.18;;;2.50;;
23402;SDS011;11874;48.228;11.684;2022-07-29T09:23:42;2.60;;;2.25;;
23402;SDS011;11874;48.228;11.684;2022-07-29T09:26:28;3.08;;;2.08;;
23402;SDS011;11874;48.228;11.684;2022-07-29T09:28:57;2.30;;;2.10;;
23402;SDS011;11874;48.228;11.684;2022-07-29T09:31:31;2.70;;;2.20;;
23402;SDS011;11874;48.228;11.684;2022-07-29T09:34:02;5.88;;;2.45;;
23402;SDS011;11874;48.228;11.684;2022-07-29T09:36:30;4.25;;;2.42;;
23402;SDS011;11874;48.228;11.684;2022-07-29T09:39:00;4.03;;;2.30;;
23402;SDS011;11874;48.228;11.684;2022-07-29T09:41:29;3.35;;;2.20;;
23402;SDS011;11874;48.228;11.684;2022-07-29T09:43:57;3.63;;;2.20;;
23402;SDS011;11874;48.228;11.684;2022-07-29T09:46:27;2.80;;;2.47;;
23402;SDS011;11874;48.228;11.684;2022-07-29T09:49:05;2.78;;;2.15;;
23402;SDS011;11874;48.228;11.684;2022-07-29T09:51:34;2.80;;;2.60;;
23402;SDS011;11874;48.228;11.684;2022-07-29T09:54:20;2.13;;;2.03;;
23402;SDS011;11874;48.228;11.684;2022-07-29T09:56:49;2.58;;;2.38;;
23402;SDS011;11874;48.228;11.684;2022-07-29T09:59:18;3.17;;;2.88;;
23402;SDS011;11874;48.228;11.684;2022-07-29T10:01:48;2.17;;;1.98;;
23402;SDS011;11874;48.228;11.684;2022-07-29T10:04:16;2.65;;;2.25;;
23402;SDS011;11874;48.228;11.684;2022-07-29T10:06:57;2.67;;;2.47;;
23402;SDS011;11874;48.228;11.684;2022-07-29T10:09:31;3.17;;;2.60;;
23402;SDS011;11874;48.228;11.684;2022-07-29T10:12:04;4.80;;;2.42;;
23402;SDS011;11874;48.228;11.684;2022-07-29T10:14:33;3.88;;;2.60;;
23402;SDS011;11874;48.228;11.684;2022-07-29T10:17:02;4.88;;;2.78;;
23402;SDS011;11874;48.228;11.684;2022-07-29T10:19:32;4.13;;;2.40;;
23402;SDS011;11874;48.228;11.684;2022-07-29T10:22:02;3.00;;;2.20;;
23402;SDS011;11874;48.228;11.684;2022-07-29T10:24:35;3.15;;;2.45;;
23402;SDS011;11874;48.228;11.684;2022-07-29T10:27:06;5.13;;;2.60;;
23402;SDS011;11874;48.228;11.684;2022-07-29T10:29:35;2.88;;;2.35;;
23402;SDS011;11874;48.228;11.684;2022-07-29T10:32:11;3.33;;;2.65;;
23402;SDS011;11874;48.228;11.684;2022-07-29T10:34:51;4.43;;;2.30;;
23402;SDS011;11874;48.228;11.684;2022-07-29T10:37:46;3.45;;;2.55;;
23402;SDS011;11874;48.228;11.684;2022-07-29T10:40:34;5.88;;;2.88;;
23402;SDS011;11874;48.228;11.684;2022-07-29T10:43:27;3.00;;;2.67;;
23402;SDS011;11874;48.228;11.684;2022-07-29T10:48:27;2.92;;;2.60;;
23402;SDS011;11874;48.228;11.684;2022-07-29T10:50:56;4.75;;;3.28;;
23402;SDS011;11874;48.228;11.684;2022-07-29T10:56:27;3.10;;;2.80;;
23402;SDS011;11874;48.228;11.684;2022-07-29T11:02:01;3.55;;;2.83;;
23402;SDS011;11874;48.228;11.684;2022-07-29T11:05:09;3.65;;;2.78;;
23402;SDS011;11874;48.228;11.684;2022-07-29T11:07:39;5.68;;;3.10;;
23402;SDS011;11874;48.228;11.684;2022-07-29T11:10:27;4.65;;;3.08;;
23402;SDS011;11874;48.228;11.684;2022-07-29T11:12:58;3.95;;;2.40;;
23402;SDS011;11874;48.228;11.684;2022-07-29T11:15:26;3.55;;;2.75;;
23402;SDS011;11874;48.228;11.684;2022-07-29T11:18:04;3.60;;;2.80;;
23402;SDS011;11874;48.228;11.684;2022-07-29T11:20:40;4.65;;;2.90;;
23402;SDS011;11874;48.228;11.684;2022-07-29T11:23:17;3.85;;;2.90;;
23402;SDS011;11874;48.228;11.684;2022-07-29T11:25:54;7.22;;;2.90;;
23402;SDS011;11874;48.228;11.684;2022-07-29T11:28:50;4.13;;;2.53;;
23402;SDS011;11874;48.228;11.684;2022-07-29T11:31:31;3.25;;;2.95;;
23402;SDS011;11874;48.228;11.684;2022-07-29T11:34:18;3.50;;;2.35;;
23402;SDS011;11874;48.228;11.684;2022-07-29T11:40:07;3.90;;;2.50;;
23402;SDS011;11874;48.228;11.684;2022-07-29T11:42:44;3.45;;;2.50;;
23402;SDS011;11874;48.228;11.684;2022-07-29T11:45:19;2.30;;;2.10;;
23402;SDS011;11874;48.228;11.684;2022-07-29T11:48:15;4.50;;;2.60;;
23402;SDS011;11874;48.228;11.684;2022-07-29T11:50:57;3.55;;;2.20;;
23402;SDS011;11874;48.228;11.684;2022-07-29T11:53:25;3.38;;;2.10;;
23402;SDS011;11874;48.228;11.684;2022-07-29T11:55:57;3.58;;;2.63;;
23402;SDS011;11874;48.228;11.684;2022-07-29T11:58:28;2.25;;;2.00;;
23402;SDS011;11874;48.228;11.684;2022-07-29T12:00:57;3.90;;;2.30;;
23402;SDS011;11874;48.228;11.684;2022-07-29T12:03:30;4.03;;;2.10;;
23402;SDS011;11874;48.228;11.684;2022-07-29T12:06:02;2.60;;;2.30;;
23402;SDS011;11874;48.228;11.684;2022-07-29T12:08:40;3.95;;;2.10;;
23402;SDS011;11874;48.228;11.684;2022-07-29T12:11:16;4.10;;;2.47;;
23402;SDS011;11874;48.228;11.684;2022-07-29T12:13:46;4.65;;;2.28;;
23402;SDS011;11874;48.228;11.684;2022-07-29T12:16:16;4.57;;;2.45;;
23402;SDS011;11874;48.228;11.684;2022-07-29T12:18:55;3.20;;;2.10;;
23402;SDS011;11874;48.228;11.684;2022-07-29T12:21:27;3.92;;;2.30;;
23402;SDS011;11874;48.228;11.684;2022-07-29T12:23:56;4.25;;;2.10;;
23402;SDS011;11874;48.228;11.684;2022-07-29T12:26:34;4.38;;;2.55;;
23402;SDS011;11874;48.228;11.684;2022-07-29T12:29:03;3.17;;;2.20;;
23402;SDS011;11874;48.228;11.684;2022-07-29T12:31:42;3.70;;;2.15;;
23402;SDS011;11874;48.228;11.684;2022-07-29T12:34:11;5.40;;;2.30;;
23402;SDS011;11874;48.228;11.684;2022-07-29T12:36:40;4.15;;;2.17;;
23402;SDS011;11874;48.228;11.684;2022-07-29T12:39:09;4.18;;;2.38;;
23402;SDS011;11874;48.228;11.684;2022-07-29T12:41:38;3.60;;;2.20;;
23402;SDS011;11874;48.228;11.684;2022-07-29T12:44:06;4.20;;;2.03;;
23402;SDS011;11874;48.228;11.684;2022-07-29T12:46:34;2.28;;;1.98;;
23402;SDS011;11874;48.228;11.684;2022-07-29T12:49:03;4.20;;;2.10;;
23402;SDS011;11874;48.228;11.684;2022-07-29T12:51:32;2.53;;;2.17;;
23402;SDS011;11874;48.228;11.684;2022-07-29T12:54:03;3.15;;;2.40;;
23402;SDS011;11874;48.228;11.684;2022-07-29T12:56:34;2.17;;;1.95;;
23402;SDS011;11874;48.228;11.684;2022-07-29T12:59:11;2.88;;;2.25;;
23402;SDS011;11874;48.228;11.684;2022-07-29T13:01:40;3.92;;;2.17;;
23402;SDS011;11874;48.228;11.684;2022-07-29T13:04:09;3.15;;;2.28;;
23402;SDS011;11874;48.228;11.684;2022-07-29T13:06:38;2.70;;;2.10;;
23402;SDS011;11874;48.228;11.684;2022-07-29T13:09:12;2.88;;;2.20;;
23402;SDS011;11874;48.228;11.684;2022-07-29T13:11:41;3.13;;;2.00;;
23402;SDS011;11874;48.228;11.684;2022-07-29T13:14:30;3.25;;;2.25;;
23402;SDS011;11874;48.228;11.684;2022-07-29T13:16:59;3.00;;;2.20;;
23402;SDS011;11874;48.228;11.684;2022-07-29T13:19:34;5.15;;;2.30;;
23402;SDS011;11874;48.228;11.684;2022-07-29T13:22:03;2.50;;;2.15;;
23402;SDS011;11874;48.228;11.684;2022-07-29T13:24:31;4.10;;;2.35;;
23402;SDS011;11874;48.228;11.684;2022-07-29T13:26:59;5.18;;;2.22;;
23402;SDS011;11874;48.228;11.684;2022-07-29T13:29:31;2.72;;;2.45;;
23402;SDS011;11874;48.228;11.684;2022-07-29T13:31:59;3.75;;;2.40;;
23402;SDS011;11874;48.228;11.684;2022-07-29T13:34:27;4.10;;;2.17;;
23402;SDS011;11874;48.228;11.684;2022-07-29T13:36:56;5.05;;;2.30;;
23402;SDS011;11874;48.228;11.684;2022-07-29T13:39:24;6.43;;;2.03;;
23402;SDS011;11874;48.228;11.684;2022-07-29T13:41:51;2.20;;;2.00;;
23402;SDS011;11874;48.228;11.684;2022-07-29T13:44:21;2.53;;;2.05;;
23402;SDS011;11874;48.228;11.684;2022-07-29T13:46:49;2.65;;;2.08;;
23402;SDS011;11874;48.228;11.684;2022-07-29T13:49:17;3.95;;;2.00;;
23402;SDS011;11874;48.228;11.684;2022-07-29T13:51:45;3.20;;;1.92;;
23402;SDS011;11874;48.228;11.684;2022-07-29T13:54:14;4.40;;;2.15;;
23402;SDS011;11874;48.228;11.684;2022-07-29T13:56:42;2.83;;;2.00;;
23402;SDS011;11874;48.228;11.684;2022-07-29T13:59:11;2.33;;;2.13;;
23402;SDS011;11874;48.228;11.684;2022-07-29T14:01:39;3.83;;;2.10;;
23402;SDS011;11874;48.228;11.684;2022-07-29T14:04:08;2.65;;;2.08;;
23402;SDS011;11874;48.228;11.684;2022-07-29T14:06:37;4.55;;;2.05;;
23402;SDS011;11874;48.228;11.684;2022-07-29T14:09:06;2.42;;;2.20;;
23402;SDS011;11874;48.228;11.684;2022-07-29T14:11:36;3.35;;;1.88;;
23402;SDS011;11874;48.228;11.684;2022-07-29T14:14:04;2.88;;;2.08;;
23402;SDS011;11874;48.228;11.684;2022-07-29T14:16:32;2.90;;;2.20;;
23402;SDS011;11874;48.228;11.684;2022-07-29T14:19:07;2.40;;;2.20;;
23402;SDS011;11874;48.228;11.684;2022-07-29T14:21:35;2.45;;;2.00;;
23402;SDS011;11874;48.228;11.684;2022-07-29T14:24:03;2.58;;;2.20;;
23402;SDS011;11874;48.228;11.684;2022-07-29T14:26:45;3.10;;;2.55;;
23402;SDS011;11874;48.228;11.684;2022-07-29T14:29:13;2.72;;;1.90;;
23402;SDS011;11874;48.228;11.684;2022-07-29T14:31:41;2.42;;;2.10;;
23402;SDS011;11874;48.228;11.684;2022-07-29T14:34:10;2.90;;;2.00;;
23402;SDS011;11874;48.228;11.684;2022-07-29T14:36:37;2.55;;;2.20;;
23402;SDS011;11874;48.228;11.684;2022-07-29T14:39:05;6.22;;;2.22;;
23402;SDS011;11874;48.228;11.684;2022-07-29T14:41:33;3.30;;;2.15;;
23402;SDS011;11874;48.228;11.684;2022-07-29T14:44:03;3.42;;;2.00;;
23402;SDS011;11874;48.228;11.684;2022-07-29T14:46:31;4.13;;;2.05;;
23402;SDS011;11874;48.228;11.684;2022-07-29T14:48:59;2.47;;;1.80;;
23402;SDS011;11874;48.228;11.684;2022-07-29T14:51:27;4.40;;;2.00;;
23402;SDS011;11874;48.228;11.684;2022-07-29T14:53:57;3.20;;;2.15;;
23402;SDS011;11874;48.228;11.684;2022-07-29T14:56:25;4.10;;;2.10;;
23402;SDS011;11874;48.228;11.684;2022-07-29T14:59:13;2.42;;;1.95;;
23402;SDS011;11874;48.228;11.684;2022-07-29T15:01:41;2.92;;;1.83;;
23402;SDS011;11874;48.228;11.684;2022-07-29T15:04:09;2.40;;;2.10;;
23402;SDS011;11874;48.228;11.684;2022-07-29T15:06:37;2.25;;;2.00;;
23402;SDS011;11874;48.228;11.684;2022-07-29T15:09:05;4.85;;;2.20;;
23402;SDS011;11874;48.228;11.684;2022-07-29T15:11:33;2.10;;;1.90;;
23402;SDS011;11874;48.228;11.684;2022-07-29T15:14:04;4.35;;;2.28;;